createdAt,value
2017-06-12T00:01:10.256Z,937.38
2017-06-12T00:02:23.165Z,937.35
2017-06-12T00:03:36.275Z,937.35
2017-06-12T00:04:49.184Z,937.36
2017-06-12T00:06:02.094Z,937.34
2017-06-12T00:07:15.026Z,937.36
2017-06-12T00:08:27.645Z,937.36
2017-06-12T00:09:40.555Z,937.31
2017-06-12T00:10:53.493Z,937.35
2017-06-12T00:12:06.404Z,937.31
2017-06-12T00:13:18.337Z,937.34
2017-06-12T00:14:31.248Z,937.35
2017-06-12T00:15:43.668Z,937.36
2017-06-12T00:16:56.580Z,937.36
2017-06-12T00:18:09.489Z,937.34
2017-06-12T00:19:22.401Z,937.36
2017-06-12T00:20:35.313Z,937.35
2017-06-12T00:21:48.226Z,937.36
2017-06-12T00:23:01.137Z,937.36
2017-06-12T00:24:14.053Z,937.34
2017-06-12T00:25:26.960Z,937.38
2017-06-12T00:26:39.377Z,937.35
2017-06-12T00:27:52.289Z,937.37
2017-06-12T00:29:05.188Z,937.37
2017-06-12T00:30:18.173Z,937.4
2017-06-12T00:31:30.956Z,937.37
2017-06-12T00:32:43.739Z,937.45
2017-06-12T00:33:56.524Z,937.42
2017-06-12T00:35:09.302Z,937.46
2017-06-12T00:36:22.076Z,937.44
2017-06-12T00:37:34.857Z,937.44
2017-06-12T00:38:47.157Z,937.42
2017-06-12T00:39:59.931Z,937.43
2017-06-12T00:41:12.427Z,937.47
2017-06-12T00:42:25.205Z,937.5
2017-06-12T00:43:37.993Z,937.45
2017-06-12T00:44:50.769Z,937.48
2017-06-12T00:46:03.060Z,937.46
2017-06-12T00:47:15.359Z,937.48
2017-06-12T00:48:28.149Z,937.46
2017-06-12T00:49:40.933Z,937.46
2017-06-12T00:50:53.706Z,937.45
2017-06-12T00:52:06.480Z,937.47
2017-06-12T00:53:19.259Z,937.47
2017-06-12T00:54:31.550Z,937.44
2017-06-12T00:55:44.320Z,937.42
2017-06-12T00:56:56.610Z,937.44
2017-06-12T00:58:08.624Z,937.41
2017-06-12T00:59:20.444Z,937.39
2017-06-12T01:00:33.237Z,937.34
2017-06-12T01:01:46.010Z,937.34
2017-06-12T01:02:58.793Z,937.33
2017-06-12T01:04:11.096Z,937.33
2017-06-12T01:05:23.872Z,937.27
2017-06-12T01:06:36.652Z,937.25
2017-06-12T01:07:49.432Z,937.28
2017-06-12T01:09:02.215Z,937.28
2017-06-12T01:10:14.990Z,937.29
2017-06-12T01:11:27.278Z,937.23
2017-06-12T01:12:40.053Z,937.23
2017-06-12T01:15:19.809Z,937.21
2017-06-12T01:16:32.719Z,937.24
2017-06-12T01:17:45.629Z,937.25
2017-06-12T01:18:58.535Z,937.26
2017-06-12T01:20:11.443Z,937.24
2017-06-12T01:21:24.352Z,937.19
2017-06-12T01:22:37.261Z,937.22
2017-06-12T01:23:49.681Z,937.22
2017-06-12T01:25:02.102Z,937.19
2017-06-12T01:26:15.012Z,937.22
2017-06-12T01:27:27.921Z,937.2
2017-06-12T01:28:40.835Z,937.2
2017-06-12T01:29:53.255Z,937.24
2017-06-12T01:31:05.676Z,937.22
2017-06-12T01:32:18.589Z,937.14
2017-06-12T01:33:31.497Z,937.17
2017-06-12T01:34:44.407Z,937.2
2017-06-12T01:35:57.514Z,937.16
2017-06-12T01:37:09.929Z,937.16
2017-06-12T01:38:22.347Z,937.16
2017-06-12T01:39:35.260Z,937.14
2017-06-12T01:40:48.371Z,937.15
2017-06-12T01:42:01.283Z,937.13
2017-06-12T01:43:14.190Z,937.12
2017-06-12T01:44:27.097Z,937.11
2017-06-12T01:45:40.004Z,937.14
2017-06-12T01:46:52.623Z,937.15
2017-06-12T01:48:05.532Z,937.11
2017-06-12T01:49:18.442Z,937.1
2017-06-12T01:50:31.356Z,937.12
2017-06-12T01:51:44.263Z,937.11
2017-06-12T01:52:57.178Z,937.13
2017-06-12T01:54:10.099Z,937.12
2017-06-12T01:55:23.007Z,937.09
2017-06-12T01:56:35.916Z,937.12
2017-06-12T01:57:48.829Z,937.06
2017-06-12T01:59:01.738Z,937.09
2017-06-12T02:00:13.667Z,937.07
2017-06-12T02:01:26.578Z,937.09
2017-06-12T02:02:39.690Z,937.07
2017-06-12T02:03:52.600Z,937.03
2017-06-12T02:05:05.509Z,937.02
2017-06-12T02:06:18.417Z,937.01
2017-06-12T02:07:30.836Z,936.99
2017-06-12T02:08:43.946Z,936.99
2017-06-12T02:09:56.856Z,936.98
2017-06-12T02:11:09.276Z,936.95
2017-06-12T02:12:22.186Z,936.94
2017-06-12T02:13:35.296Z,936.94
2017-06-12T02:14:48.215Z,936.95
2017-06-12T02:16:01.125Z,936.91
2017-06-12T02:17:14.038Z,936.92
2017-06-12T02:18:26.460Z,936.94
2017-06-12T02:19:39.572Z,936.94
2017-06-12T02:20:51.989Z,936.95
2017-06-12T02:22:03.917Z,936.91
2017-06-12T02:23:16.829Z,936.92
2017-06-12T02:24:29.939Z,936.94
2017-06-12T02:25:42.850Z,936.92
2017-06-12T02:26:55.757Z,936.94
2017-06-12T02:28:08.668Z,936.91
2017-06-12T02:29:21.578Z,936.9
2017-06-12T02:30:34.685Z,936.96
2017-06-12T02:31:47.592Z,936.94
2017-06-12T02:32:59.520Z,936.95
2017-06-12T02:34:12.430Z,936.92
2017-06-12T02:35:25.342Z,936.97
2017-06-12T02:36:38.255Z,936.96
2017-06-12T02:37:51.166Z,936.91
2017-06-12T02:39:04.077Z,936.87
2017-06-12T02:40:16.497Z,936.84
2017-06-12T02:41:29.406Z,936.81
2017-06-12T02:42:42.314Z,936.83
2017-06-12T02:43:55.222Z,936.84
2017-06-12T02:45:08.131Z,936.82
2017-06-12T02:46:20.746Z,936.84
2017-06-12T02:47:33.653Z,936.81
2017-06-12T02:48:46.561Z,936.84
2017-06-12T02:49:59.467Z,936.82
2017-06-12T02:51:12.375Z,936.83
2017-06-12T02:52:25.284Z,936.81
2017-06-12T02:53:37.706Z,936.79
2017-06-12T02:54:50.623Z,936.82
2017-06-12T02:56:03.532Z,936.77
2017-06-12T02:57:16.639Z,936.76
2017-06-12T02:58:29.549Z,936.73
2017-06-12T02:59:42.459Z,936.7
2017-06-12T03:00:55.370Z,936.72
2017-06-12T03:02:08.282Z,936.68
2017-06-12T03:03:21.400Z,936.68
2017-06-12T03:04:34.309Z,936.71
2017-06-12T03:05:47.222Z,936.68
2017-06-12T03:06:59.642Z,936.65
2017-06-12T03:08:11.078Z,936.66
2017-06-12T03:09:23.986Z,936.66
2017-06-12T03:10:36.899Z,936.65
2017-06-12T03:11:49.317Z,936.61
2017-06-12T03:13:02.237Z,936.61
2017-06-12T03:14:15.149Z,936.6
2017-06-12T03:15:28.059Z,936.57
2017-06-12T03:16:40.479Z,936.57
2017-06-12T03:17:53.392Z,936.54
2017-06-12T03:19:06.300Z,936.56
2017-06-12T03:20:18.719Z,936.55
2017-06-12T03:21:31.629Z,936.58
2017-06-12T03:22:44.536Z,936.58
2017-06-12T03:23:57.447Z,936.55
2017-06-12T03:25:10.370Z,936.51
2017-06-12T03:26:23.283Z,936.5
2017-06-12T03:27:36.192Z,936.47
2017-06-12T03:28:48.609Z,936.47
2017-06-12T03:30:01.520Z,936.51
2017-06-12T03:31:14.430Z,936.52
2017-06-12T03:32:27.339Z,936.47
2017-06-12T03:33:40.257Z,936.48
2017-06-12T03:34:53.167Z,936.47
2017-06-12T03:36:06.278Z,936.47
2017-06-12T03:37:19.187Z,936.46
2017-06-12T03:38:32.099Z,936.43
2017-06-12T03:39:45.011Z,936.42
2017-06-12T03:40:57.921Z,936.41
2017-06-12T03:42:10.339Z,936.42
2017-06-12T03:43:23.253Z,936.4
2017-06-12T03:44:36.164Z,936.4
2017-06-12T03:45:49.070Z,936.39
2017-06-12T03:47:00.993Z,936.41
2017-06-12T03:48:13.904Z,936.43
2017-06-12T03:49:26.809Z,936.41
2017-06-12T03:50:39.715Z,936.41
2017-06-12T03:51:52.335Z,936.39
2017-06-12T03:53:05.244Z,936.35
2017-06-12T03:54:18.152Z,936.35
2017-06-12T03:55:31.061Z,936.33
2017-06-12T03:56:43.975Z,936.38
2017-06-12T03:57:56.730Z,936.42
2017-06-12T03:59:09.277Z,936.44
2017-06-12T04:00:21.825Z,936.43
2017-06-12T04:01:34.873Z,936.4
2017-06-12T04:02:48.152Z,936.37
2017-06-12T04:04:00.701Z,936.38
2017-06-12T04:05:13.756Z,936.41
2017-06-12T04:06:26.808Z,936.42
2017-06-12T04:07:39.861Z,936.46
2017-06-12T04:08:52.611Z,936.41
2017-06-12T04:10:05.661Z,936.47
2017-06-12T04:11:18.210Z,936.48
2017-06-12T04:12:31.269Z,936.48
2017-06-12T04:13:43.822Z,936.5
2017-06-12T04:14:56.371Z,936.45
2017-06-12T04:16:09.448Z,936.49
2017-06-12T04:17:22.494Z,936.48
2017-06-12T04:18:35.545Z,936.51
2017-06-12T04:19:48.097Z,936.51
2017-06-12T04:21:00.646Z,936.5
2017-06-12T04:22:13.705Z,936.51
2017-06-12T04:23:26.261Z,936.48
2017-06-12T04:24:39.515Z,936.54
2017-06-12T04:25:52.567Z,936.51
2017-06-12T04:27:05.617Z,936.53
2017-06-12T04:28:18.670Z,936.51
2017-06-12T04:29:31.719Z,936.44
2017-06-12T04:30:44.969Z,936.46
2017-06-12T04:31:57.518Z,936.46
2017-06-12T04:33:10.573Z,936.46
2017-06-12T04:34:23.622Z,936.43
2017-06-12T04:35:36.673Z,936.44
2017-06-12T04:36:49.722Z,936.45
2017-06-12T04:38:02.772Z,936.38
2017-06-12T04:39:15.822Z,936.4
2017-06-12T04:40:28.401Z,936.34
2017-06-12T04:41:41.451Z,936.35
2017-06-12T04:42:53.999Z,936.38
2017-06-12T04:44:06.554Z,936.38
2017-06-12T04:45:19.604Z,936.4
2017-06-12T04:46:32.354Z,936.36
2017-06-12T04:47:45.415Z,936.36
2017-06-12T04:48:58.464Z,936.36
2017-06-12T04:50:11.513Z,936.41
2017-06-12T04:51:24.559Z,936.43
2017-06-12T04:52:37.608Z,936.39
2017-06-12T04:53:50.656Z,936.39
2017-06-12T04:55:03.704Z,936.41
2017-06-12T04:56:16.254Z,936.38
2017-06-12T04:57:29.002Z,936.42
2017-06-12T04:58:42.053Z,936.41
2017-06-12T04:59:54.604Z,936.44
2017-06-12T05:01:07.153Z,936.4
2017-06-12T05:02:20.202Z,936.38
2017-06-12T05:03:33.253Z,936.35
2017-06-12T05:04:46.303Z,936.38
2017-06-12T05:05:58.854Z,936.33
2017-06-12T05:07:10.938Z,936.32
2017-06-12T05:08:24.188Z,936.25
2017-06-12T05:09:37.244Z,936.26
2017-06-12T05:10:49.796Z,936.26
2017-06-12T05:12:02.843Z,936.29
2017-06-12T05:13:14.893Z,936.27
2017-06-12T05:14:28.146Z,936.26
2017-06-12T05:15:40.696Z,936.23
2017-06-12T05:16:53.745Z,936.2
2017-06-12T05:18:06.293Z,936.21
2017-06-12T05:19:19.344Z,936.24
2017-06-12T05:20:32.392Z,936.23
2017-06-12T05:21:45.442Z,936.21
2017-06-12T05:22:58.493Z,936.2
2017-06-12T05:24:11.543Z,936.18
2017-06-12T05:25:24.792Z,936.19
2017-06-12T05:26:37.839Z,936.19
2017-06-12T05:27:49.887Z,936.18
2017-06-12T05:29:02.941Z,936.16
2017-06-12T05:30:16.191Z,936.15
2017-06-12T05:31:29.241Z,936.11
2017-06-12T05:32:42.295Z,936.11
2017-06-12T05:33:55.343Z,936.11
2017-06-12T05:35:08.400Z,936.08
2017-06-12T05:36:21.640Z,936.06
2017-06-12T05:37:34.569Z,936.06
2017-06-12T05:38:47.481Z,936.02
2017-06-12T05:39:59.898Z,936
2017-06-12T05:41:12.807Z,935.95
2017-06-12T05:42:25.715Z,935.92
2017-06-12T05:43:38.620Z,935.9
2017-06-12T05:44:51.506Z,935.85
2017-06-12T05:46:03.902Z,935.83
2017-06-12T05:47:16.500Z,935.81
2017-06-12T05:48:29.390Z,935.81
2017-06-12T05:49:42.280Z,935.79
2017-06-12T05:50:55.171Z,935.82
2017-06-12T05:52:07.083Z,935.77
2017-06-12T05:53:19.967Z,935.81
2017-06-12T05:54:32.857Z,935.78
2017-06-12T05:55:45.278Z,935.81
2017-06-12T05:56:58.166Z,935.77
2017-06-12T05:58:11.252Z,935.78
2017-06-12T05:59:23.654Z,935.82
2017-06-12T06:00:36.544Z,935.81
2017-06-12T06:01:49.429Z,935.8
2017-06-12T06:03:02.519Z,935.79
2017-06-12T06:04:14.911Z,935.8
2017-06-12T06:05:27.798Z,935.79
2017-06-12T06:06:40.688Z,935.8
2017-06-12T06:07:53.085Z,935.8
2017-06-12T06:09:06.181Z,935.79
2017-06-12T06:10:19.154Z,935.83
2017-06-12T06:11:31.634Z,935.8
2017-06-12T06:12:44.609Z,935.8
2017-06-12T06:13:57.291Z,935.83
2017-06-12T06:15:10.264Z,935.81
2017-06-12T06:16:23.234Z,935.81
2017-06-12T06:17:35.717Z,935.81
2017-06-12T06:18:48.706Z,935.81
2017-06-12T06:20:01.680Z,935.8
2017-06-12T06:21:14.654Z,935.79
2017-06-12T06:22:27.628Z,935.78
2017-06-12T06:23:40.110Z,935.78
2017-06-12T06:24:52.093Z,935.8
2017-06-12T06:26:04.572Z,935.77
2017-06-12T06:27:17.545Z,935.78
2017-06-12T06:28:30.520Z,935.78
2017-06-12T06:29:43.496Z,935.77
2017-06-12T06:30:56.467Z,935.76
2017-06-12T06:32:09.441Z,935.73
2017-06-12T06:33:21.917Z,935.68
2017-06-12T06:34:34.885Z,935.69
2017-06-12T06:35:47.855Z,935.61
2017-06-12T06:37:00.826Z,935.61
2017-06-12T06:38:13.806Z,935.59
2017-06-12T06:39:26.779Z,935.63
2017-06-12T06:40:39.748Z,935.59
2017-06-12T06:41:52.921Z,935.59
2017-06-12T06:43:05.889Z,935.57
2017-06-12T06:44:18.775Z,935.56
2017-06-12T06:45:31.665Z,935.54
2017-06-12T06:46:44.261Z,935.53
2017-06-12T06:47:57.147Z,935.54
2017-06-12T06:49:10.040Z,935.54
2017-06-12T06:50:22.438Z,935.51
2017-06-12T06:51:35.327Z,935.5
2017-06-12T06:52:48.418Z,935.43
2017-06-12T06:54:01.309Z,935.52
2017-06-12T06:55:13.710Z,935.47
2017-06-12T06:56:26.113Z,935.48
2017-06-12T06:57:39.205Z,935.46
2017-06-12T06:58:52.090Z,935.45
2017-06-12T07:00:04.985Z,935.45
2017-06-12T07:01:17.382Z,935.43
2017-06-12T07:02:30.272Z,935.39
2017-06-12T07:03:42.668Z,935.4
2017-06-12T07:04:55.556Z,935.4
2017-06-12T07:06:08.443Z,935.36
2017-06-12T07:07:21.330Z,935.33
2017-06-12T07:08:34.220Z,935.34
2017-06-12T07:09:46.622Z,935.34
2017-06-12T07:10:59.510Z,935.25
2017-06-12T07:12:11.906Z,935.26
2017-06-12T07:13:24.317Z,935.23
2017-06-12T07:14:37.411Z,935.26
2017-06-12T07:15:50.320Z,935.25
2017-06-12T07:17:03.229Z,935.2
2017-06-12T07:18:16.138Z,935.12
2017-06-12T07:19:29.047Z,935.15
2017-06-12T07:20:41.953Z,935.14
2017-06-12T07:21:54.860Z,935.18
2017-06-12T07:23:07.279Z,935.15
2017-06-12T07:24:20.188Z,935.24
2017-06-12T07:25:32.115Z,935.2
2017-06-12T07:26:45.026Z,935.21
2017-06-12T07:27:56.950Z,935.23
2017-06-12T07:29:09.856Z,935.22
2017-06-12T07:30:22.272Z,935.24
2017-06-12T07:31:35.179Z,935.22
2017-06-12T07:32:48.087Z,935.19
2017-06-12T07:34:00.025Z,935.18
2017-06-12T07:35:12.442Z,935.18
2017-06-12T07:36:25.062Z,935.15
2017-06-12T07:37:37.978Z,935.19
2017-06-12T07:38:50.398Z,935.21
2017-06-12T07:40:02.323Z,935.19
2017-06-12T07:41:14.738Z,935.16
2017-06-12T07:42:27.652Z,935.18
2017-06-12T07:43:40.565Z,935.17
2017-06-12T07:44:53.473Z,935.17
2017-06-12T07:46:05.889Z,935.15
2017-06-12T07:47:18.806Z,935.15
2017-06-12T07:48:31.713Z,935.15
2017-06-12T07:49:44.131Z,935.16
2017-06-12T07:50:57.036Z,935.14
2017-06-12T07:52:09.652Z,935.13
2017-06-12T07:53:22.071Z,935.14
2017-06-12T07:54:34.980Z,935.16
2017-06-12T07:55:47.889Z,935.19
2017-06-12T07:57:00.802Z,935.2
2017-06-12T07:58:13.219Z,935.23
2017-06-12T07:59:26.127Z,935.22
2017-06-12T08:00:39.034Z,935.27
2017-06-12T08:01:51.941Z,935.25
2017-06-12T08:03:05.046Z,935.29
2017-06-12T08:04:17.952Z,935.26
2017-06-12T08:05:30.859Z,935.29
2017-06-12T08:06:43.770Z,935.24
2017-06-12T08:07:56.679Z,935.21
2017-06-12T08:09:09.788Z,935.23
2017-06-12T08:10:22.206Z,935.26
2017-06-12T08:11:35.119Z,935.28
2017-06-12T08:12:48.026Z,935.26
2017-06-12T08:14:00.932Z,935.3
2017-06-12T08:15:13.863Z,935.27
2017-06-12T08:16:26.284Z,935.26
2017-06-12T08:17:39.196Z,935.33
2017-06-12T08:18:52.106Z,935.31
2017-06-12T08:20:05.214Z,935.26
2017-06-12T08:21:18.121Z,935.25
2017-06-12T08:22:30.046Z,935.23
2017-06-12T08:23:42.953Z,935.24
2017-06-12T08:24:56.062Z,935.22
2017-06-12T08:26:08.967Z,935.29
2017-06-12T08:27:20.892Z,935.29
2017-06-12T08:28:33.311Z,935.31
2017-06-12T08:29:45.732Z,935.32
2017-06-12T08:30:58.642Z,935.32
2017-06-12T08:32:11.550Z,935.31
2017-06-12T08:33:24.460Z,935.31
2017-06-12T08:34:37.369Z,935.35
2017-06-12T08:35:50.283Z,935.33
2017-06-12T08:37:02.705Z,935.35
2017-06-12T08:38:15.614Z,935.34
2017-06-12T08:39:28.030Z,935.37
2017-06-12T08:40:40.936Z,935.4
2017-06-12T08:41:53.355Z,935.39
2017-06-12T08:43:05.773Z,935.43
2017-06-12T08:44:17.697Z,935.44
2017-06-12T08:45:30.602Z,935.44
2017-06-12T08:46:43.711Z,935.45
2017-06-12T08:47:56.125Z,935.51
2017-06-12T08:49:08.542Z,935.48
2017-06-12T08:50:20.959Z,935.47
2017-06-12T08:51:33.879Z,935.48
2017-06-12T08:52:46.786Z,935.52
2017-06-12T08:53:59.690Z,935.5
2017-06-12T08:55:12.105Z,935.51
2017-06-12T08:56:25.013Z,935.51
2017-06-12T08:57:38.043Z,935.52
2017-06-12T08:58:50.595Z,935.48
2017-06-12T09:00:03.147Z,935.52
2017-06-12T09:01:15.702Z,935.55
2017-06-12T09:02:28.755Z,935.52
2017-06-12T09:03:41.305Z,935.56
2017-06-12T09:04:54.351Z,935.55
2017-06-12T09:06:06.900Z,935.54
2017-06-12T09:07:19.948Z,935.58
2017-06-12T09:08:32.997Z,935.6
2017-06-12T09:09:46.049Z,935.62
2017-06-12T09:10:59.111Z,935.65
2017-06-12T09:12:12.161Z,935.69
2017-06-12T09:13:24.709Z,935.67
2017-06-12T09:14:37.955Z,935.67
2017-06-12T09:15:51.002Z,935.68
2017-06-12T09:17:04.052Z,935.7
2017-06-12T09:18:16.598Z,935.71
2017-06-12T09:19:29.849Z,935.73
2017-06-12T09:20:42.901Z,935.71
2017-06-12T09:21:55.951Z,935.78
2017-06-12T09:23:08.500Z,935.82
2017-06-12T09:24:21.551Z,935.79
2017-06-12T09:25:34.298Z,935.87
2017-06-12T09:26:47.349Z,935.88
2017-06-12T09:28:00.401Z,935.92
2017-06-12T09:29:13.431Z,935.93
2017-06-12T09:30:26.537Z,935.96
2017-06-12T09:31:39.306Z,936.01
2017-06-12T09:32:52.078Z,935.98
2017-06-12T09:34:04.891Z,935.99
2017-06-12T09:35:17.186Z,936.01
2017-06-12T09:36:29.674Z,936.04
2017-06-12T09:37:42.446Z,936.02
2017-06-12T09:38:54.734Z,936.05
2017-06-12T09:40:07.504Z,936.05
2017-06-12T09:41:19.991Z,936.04
2017-06-12T09:42:32.759Z,936.02
2017-06-12T09:43:45.063Z,936.01
2017-06-12T09:44:57.354Z,935.99
2017-06-12T09:46:09.643Z,935.99
2017-06-12T09:47:22.411Z,936.01
2017-06-12T09:48:34.710Z,936
2017-06-12T09:49:47.480Z,936.01
2017-06-12T09:50:59.770Z,936.06
2017-06-12T09:52:12.741Z,936.06
2017-06-12T09:53:25.512Z,936.08
2017-06-12T09:54:38.282Z,936.07
2017-06-12T09:55:51.052Z,936.01
2017-06-12T09:57:03.824Z,936.06
2017-06-12T09:58:15.635Z,936.09
2017-06-12T09:59:28.406Z,936.06
2017-06-12T10:00:41.180Z,936.07
2017-06-12T10:01:53.947Z,936.08
2017-06-12T10:03:06.918Z,936.08
2017-06-12T10:04:19.215Z,936.11
2017-06-12T10:05:31.986Z,936.09
2017-06-12T10:06:44.789Z,936.17
2017-06-12T10:07:57.079Z,936.17
2017-06-12T10:09:09.366Z,936.14
2017-06-12T10:10:21.654Z,936.15
2017-06-12T10:11:34.436Z,936.15
2017-06-12T10:12:47.205Z,936.17
2017-06-12T10:13:59.985Z,936.19
2017-06-12T10:15:12.278Z,936.25
2017-06-12T10:16:24.568Z,936.23
2017-06-12T10:17:36.859Z,936.23
2017-06-12T10:18:49.630Z,936.26
2017-06-12T10:20:02.401Z,936.25
2017-06-12T10:21:14.693Z,936.24
2017-06-12T10:22:27.466Z,936.21
2017-06-12T10:23:40.257Z,936.25
2017-06-12T10:24:53.230Z,936.25
2017-06-12T10:26:06.001Z,936.26
2017-06-12T10:27:18.772Z,936.23
2017-06-12T10:28:31.540Z,936.24
2017-06-12T10:29:44.315Z,936.29
2017-06-12T10:30:57.290Z,936.27
2017-06-12T10:32:09.578Z,936.26
2017-06-12T10:33:21.387Z,936.25
2017-06-12T10:34:33.681Z,936.28
2017-06-12T10:35:46.181Z,936.25
2017-06-12T10:36:58.470Z,936.26
2017-06-12T10:38:10.759Z,936.23
2017-06-12T10:39:23.530Z,936.26
2017-06-12T10:40:35.843Z,936.27
2017-06-12T10:41:48.618Z,936.27
2017-06-12T10:43:00.905Z,936.26
2017-06-12T10:44:13.197Z,936.25
2017-06-12T10:45:25.968Z,936.27
2017-06-12T10:46:38.741Z,936.28
2017-06-12T10:47:50.548Z,936.29
2017-06-12T10:49:02.839Z,936.33
2017-06-12T10:50:15.128Z,936.3
2017-06-12T10:51:27.901Z,936.31
2017-06-12T10:52:40.392Z,936.28
2017-06-12T10:53:52.683Z,936.32
2017-06-12T10:55:04.971Z,936.32
2017-06-12T10:56:16.778Z,936.36
2017-06-12T10:57:29.549Z,936.36
2017-06-12T10:58:41.847Z,936.37
2017-06-12T10:59:54.139Z,936.38
2017-06-12T11:01:05.951Z,936.4
2017-06-12T11:02:16.799Z,936.38
2017-06-12T11:03:29.566Z,936.43
2017-06-12T11:04:41.857Z,936.44
2017-06-12T11:05:54.629Z,936.47
2017-06-12T11:07:06.918Z,936.5
2017-06-12T11:08:18.727Z,936.47
2017-06-12T11:09:45.089Z,936.53
2017-06-12T11:10:57.874Z,936.5
2017-06-12T11:12:10.294Z,936.48
2017-06-12T11:13:23.206Z,936.54
2017-06-12T11:14:36.119Z,936.52
2017-06-12T11:15:49.038Z,936.52
2017-06-12T11:17:01.950Z,936.5
2017-06-12T11:18:14.868Z,936.51
2017-06-12T11:19:27.290Z,936.55
2017-06-12T11:20:39.708Z,936.55
2017-06-12T11:21:52.619Z,936.55
2017-06-12T11:23:05.534Z,936.55
2017-06-12T11:24:17.956Z,936.55
2017-06-12T11:25:30.866Z,936.51
2017-06-12T11:26:43.780Z,936.53
2017-06-12T11:27:56.690Z,936.51
2017-06-12T11:29:08.620Z,936.51
2017-06-12T11:30:21.532Z,936.52
2017-06-12T11:31:34.452Z,936.53
2017-06-12T11:32:46.881Z,936.57
2017-06-12T11:33:59.301Z,936.62
2017-06-12T11:35:11.727Z,936.61
2017-06-12T11:36:24.636Z,936.64
2017-06-12T11:37:37.746Z,936.69
2017-06-12T11:38:49.676Z,936.67
2017-06-12T11:40:02.097Z,936.71
2017-06-12T11:41:13.535Z,936.68
2017-06-12T11:42:26.449Z,936.67
2017-06-12T11:43:39.365Z,936.69
2017-06-12T11:44:52.276Z,936.66
2017-06-12T11:46:04.206Z,936.74
2017-06-12T11:47:17.118Z,936.73
2017-06-12T11:48:29.546Z,936.74
2017-06-12T11:49:41.972Z,936.74
2017-06-12T11:50:54.394Z,936.76
2017-06-12T11:52:06.324Z,936.74
2017-06-12T11:53:18.751Z,936.81
2017-06-12T11:54:31.667Z,936.74
2017-06-12T11:55:44.582Z,936.78
2017-06-12T11:56:57.002Z,936.85
2017-06-12T11:58:09.428Z,936.86
2017-06-12T11:59:21.850Z,936.83
2017-06-12T12:00:34.770Z,936.84
2017-06-12T12:01:47.684Z,936.86
2017-06-12T12:03:00.596Z,936.87
2017-06-12T12:04:12.528Z,936.84
2017-06-12T12:05:25.441Z,936.84
2017-06-12T12:06:38.359Z,936.85
2017-06-12T12:07:51.281Z,936.8
2017-06-12T12:09:04.197Z,936.81
2017-06-12T12:10:31.361Z,936.78
2017-06-12T12:11:44.276Z,936.75
2017-06-12T12:12:57.191Z,936.73
2017-06-12T12:14:10.105Z,936.78
2017-06-12T12:15:23.223Z,936.75
2017-06-12T12:16:36.141Z,936.83
2017-06-12T12:17:48.568Z,936.84
2017-06-12T12:19:00.994Z,936.87
2017-06-12T12:20:13.911Z,936.89
2017-06-12T12:21:26.537Z,936.93
2017-06-12T12:22:39.460Z,936.91
2017-06-12T12:23:52.381Z,936.9
2017-06-12T12:25:05.300Z,936.9
2017-06-12T12:26:18.418Z,936.89
2017-06-12T12:27:30.842Z,936.93
2017-06-12T12:28:43.777Z,936.91
2017-06-12T12:29:55.832Z,936.9
2017-06-12T12:31:08.388Z,936.89
2017-06-12T12:32:21.143Z,936.86
2017-06-12T12:33:34.201Z,936.9
2017-06-12T12:34:46.754Z,936.86
2017-06-12T12:35:59.313Z,936.95
2017-06-12T12:37:12.568Z,937.01
2017-06-12T12:38:25.621Z,937.09
2017-06-12T12:39:38.184Z,937.09
2017-06-12T12:40:50.751Z,937.1
2017-06-12T12:42:03.807Z,937.13
2017-06-12T12:43:30.383Z,937.17
2017-06-12T12:44:42.938Z,937.21
2017-06-12T12:45:55.994Z,937.27
2017-06-12T12:47:09.051Z,937.26
2017-06-12T12:48:22.308Z,937.27
2017-06-12T12:49:34.870Z,937.25
2017-06-12T12:50:47.420Z,937.26
2017-06-12T12:52:00.337Z,937.27
2017-06-12T12:53:12.960Z,937.28
2017-06-12T12:54:25.882Z,937.3
2017-06-12T12:55:38.307Z,937.27
2017-06-12T12:56:50.758Z,937.32
2017-06-12T12:58:03.182Z,937.32
2017-06-12T12:59:16.296Z,937.38
2017-06-12T13:00:29.210Z,937.36
2017-06-12T13:01:42.127Z,937.39
2017-06-12T13:02:54.549Z,937.36
2017-06-12T13:04:07.005Z,937.34
2017-06-12T13:05:19.934Z,937.36
2017-06-12T13:06:32.851Z,937.37
2017-06-12T13:07:45.767Z,937.37
2017-06-12T13:08:58.682Z,937.36
2017-06-12T13:10:11.595Z,937.34
2017-06-12T13:11:24.511Z,937.34
2017-06-12T13:12:37.423Z,937.38
2017-06-12T13:13:49.842Z,937.42
2017-06-12T13:15:02.736Z,937.37
2017-06-12T13:16:15.635Z,937.38
2017-06-12T13:17:28.042Z,937.36
2017-06-12T13:18:40.934Z,937.35
2017-06-12T13:19:53.834Z,937.36
2017-06-12T13:21:06.730Z,937.36
2017-06-12T13:22:19.135Z,937.34
2017-06-12T13:23:31.047Z,937.35
2017-06-12T13:24:43.454Z,937.36
2017-06-12T13:25:56.351Z,937.31
2017-06-12T13:27:08.268Z,937.27
2017-06-12T13:28:20.190Z,937.28
2017-06-12T13:29:32.113Z,937.28
2017-06-12T13:30:45.012Z,937.31
2017-06-12T13:31:57.910Z,937.33
2017-06-12T13:33:10.803Z,937.35
2017-06-12T13:34:23.217Z,937.39
2017-06-12T13:35:35.618Z,937.38
2017-06-12T13:36:48.027Z,937.39
2017-06-12T13:38:00.919Z,937.31
2017-06-12T13:39:12.834Z,937.3
2017-06-12T13:40:25.927Z,937.29
2017-06-12T13:41:38.335Z,937.2
2017-06-12T13:42:51.231Z,937.17
2017-06-12T13:44:04.125Z,937.18
2017-06-12T13:45:16.529Z,937.17
2017-06-12T13:46:29.421Z,937.1
2017-06-12T13:47:42.321Z,937.06
2017-06-12T13:48:54.728Z,936.96
2017-06-12T13:50:07.135Z,936.93
2017-06-12T13:51:20.033Z,936.89
2017-06-12T13:52:32.928Z,936.85
2017-06-12T13:53:45.826Z,936.84
2017-06-12T13:54:57.738Z,936.84
2017-06-12T13:56:10.147Z,936.78
2017-06-12T13:57:22.555Z,936.73
2017-06-12T13:58:34.960Z,936.73
2017-06-12T13:59:47.259Z,936.72
2017-06-12T14:01:00.036Z,936.71
2017-06-12T14:02:13.016Z,936.69
2017-06-12T14:03:25.315Z,936.69
2017-06-12T14:04:37.132Z,936.69
2017-06-12T14:05:49.432Z,936.71
2017-06-12T14:07:02.212Z,936.71
2017-06-12T14:08:14.028Z,936.73
2017-06-12T14:09:26.804Z,936.74
2017-06-12T14:10:39.587Z,936.72
2017-06-12T14:11:52.368Z,936.77
2017-06-12T14:13:05.350Z,936.73
2017-06-12T14:14:17.167Z,936.73
2017-06-12T14:15:29.945Z,936.75
2017-06-12T14:16:42.723Z,936.72
2017-06-12T14:17:55.502Z,936.72
2017-06-12T14:19:08.284Z,936.75
2017-06-12T14:20:20.100Z,936.72
2017-06-12T14:21:32.400Z,936.74
2017-06-12T14:22:45.182Z,936.76
2017-06-12T14:23:57.961Z,936.76
2017-06-12T14:25:10.261Z,936.78
2017-06-12T14:26:23.038Z,936.81
2017-06-12T14:27:35.818Z,936.78
2017-06-12T14:28:48.750Z,936.74
2017-06-12T14:30:01.529Z,936.75
2017-06-12T14:31:13.344Z,936.73
2017-06-12T14:32:26.123Z,936.72
2017-06-12T14:33:38.901Z,936.75
2017-06-12T14:34:51.678Z,936.74
2017-06-12T14:36:04.456Z,936.72
2017-06-12T14:37:16.751Z,936.71
2017-06-12T14:38:29.047Z,936.69
2017-06-12T14:39:41.344Z,936.73
2017-06-12T14:40:54.121Z,936.76
2017-06-12T14:42:06.420Z,936.75
2017-06-12T14:43:19.200Z,936.78
2017-06-12T14:44:31.991Z,936.77
2017-06-12T14:45:44.771Z,936.81
2017-06-12T14:46:57.550Z,936.76
2017-06-12T14:48:10.333Z,936.81
2017-06-12T14:49:22.630Z,936.84
2017-06-12T14:50:35.122Z,936.83
2017-06-12T14:51:46.937Z,936.85
2017-06-12T14:52:59.716Z,936.85
2017-06-12T14:54:12.494Z,936.82
2017-06-12T14:55:25.275Z,936.77
2017-06-12T14:56:38.251Z,936.84
2017-06-12T14:57:51.028Z,936.79
2017-06-12T14:59:03.322Z,936.79
2017-06-12T15:00:16.099Z,936.72
2017-06-12T15:01:29.078Z,936.68
2017-06-12T15:02:41.860Z,936.65
2017-06-12T15:03:54.155Z,936.6
2017-06-12T15:05:06.456Z,936.59
2017-06-12T15:06:19.234Z,936.58
2017-06-12T15:07:32.037Z,936.56
2017-06-12T15:08:44.816Z,936.54
2017-06-12T15:09:57.145Z,936.53
2017-06-12T15:11:08.968Z,936.5
2017-06-12T15:12:21.268Z,936.49